createdAt,value
2019-05-29T00:00:48.113Z,1.20
2019-05-29T00:03:18.646Z,1.12
2019-05-29T00:05:47.781Z,1.12
2019-05-29T00:08:16.942Z,1.00
2019-05-29T00:10:46.072Z,1.30
2019-05-29T00:13:15.195Z,1.05
2019-05-29T00:15:44.309Z,1.15
2019-05-29T00:18:14.592Z,1.05
2019-05-29T00:20:43.764Z,1.17
2019-05-29T00:23:12.930Z,1.20
2019-05-29T00:25:42.084Z,0.90
2019-05-29T00:28:11.201Z,1.00
2019-05-29T00:30:40.325Z,1.05
2019-05-29T00:33:10.115Z,1.07
2019-05-29T00:35:39.294Z,0.90
2019-05-29T00:38:08.525Z,1.20
2019-05-29T00:40:37.620Z,1.15
2019-05-29T00:43:07.373Z,1.30
2019-05-29T00:45:36.592Z,1.30
2019-05-29T00:48:05.827Z,1.20
2019-05-29T00:50:35.107Z,1.10
2019-05-29T00:53:04.288Z,1.30
2019-05-29T00:55:33.406Z,1.20
2019-05-29T00:58:02.549Z,1.27
2019-05-29T01:00:31.664Z,1.10
2019-05-29T01:03:00.774Z,0.95
2019-05-29T01:05:29.922Z,1.25
2019-05-29T01:07:59.190Z,1.00
2019-05-29T01:10:28.311Z,1.10
2019-05-29T01:12:57.462Z,1.02
2019-05-29T01:15:26.608Z,1.10
2019-05-29T01:17:55.746Z,1.20
2019-05-29T01:20:24.891Z,1.00
2019-05-29T01:22:54.042Z,1.22
2019-05-29T01:25:23.188Z,1.20
2019-05-29T01:27:52.308Z,1.05
2019-05-29T01:30:21.466Z,1.30
2019-05-29T01:32:50.602Z,1.12
2019-05-29T01:35:20.050Z,1.27
2019-05-29T01:37:49.321Z,1.30
2019-05-29T01:40:22.123Z,1.37
2019-05-29T01:42:50.184Z,1.30
2019-05-29T01:45:19.548Z,1.40
2019-05-29T01:47:49.728Z,1.30
2019-05-29T01:50:19.647Z,1.27
2019-05-29T01:52:48.750Z,1.57
2019-05-29T01:55:18.112Z,1.22
2019-05-29T01:57:47.311Z,1.20
2019-05-29T02:00:36.928Z,1.40
2019-05-29T02:03:06.060Z,1.30
2019-05-29T02:05:35.232Z,0.90
2019-05-29T02:08:04.337Z,1.45
2019-05-29T02:10:33.483Z,1.20
2019-05-29T02:13:02.639Z,1.32
2019-05-29T02:15:33.944Z,1.20
2019-05-29T02:18:02.629Z,1.17
2019-05-29T02:20:31.731Z,1.00
2019-05-29T02:23:00.861Z,1.22
2019-05-29T02:25:29.970Z,1.50
2019-05-29T02:27:59.101Z,1.30
2019-05-29T02:30:30.629Z,1.57
2019-05-29T02:32:59.080Z,1.32
2019-05-29T02:35:29.626Z,1.40
2019-05-29T02:37:58.902Z,1.07
2019-05-29T02:40:29.883Z,1.22
2019-05-29T02:42:58.869Z,1.40
2019-05-29T02:45:50.290Z,1.17
2019-05-29T02:48:00.003Z,1.27
2019-05-29T02:50:31.115Z,1.27
2019-05-29T02:52:59.970Z,1.20
2019-05-29T02:55:30.788Z,1.32
2019-05-29T02:57:59.935Z,1.30
2019-05-29T03:00:54.994Z,1.17
2019-05-29T03:03:26.773Z,1.50
2019-05-29T03:05:56.961Z,1.17
2019-05-29T03:08:27.078Z,1.20
2019-05-29T03:10:56.925Z,1.30
2019-05-29T03:13:27.621Z,1.30
2019-05-29T03:16:09.513Z,1.35
2019-05-29T03:18:28.244Z,1.10
2019-05-29T03:20:57.746Z,1.00
2019-05-29T03:23:28.835Z,1.15
2019-05-29T03:25:57.701Z,1.15
2019-05-29T03:28:27.610Z,1.37
2019-05-29T03:30:56.846Z,1.12
2019-05-29T03:33:28.489Z,1.45
2019-05-29T03:35:56.884Z,1.40
2019-05-29T03:38:26.186Z,1.40
2019-05-29T03:40:55.351Z,1.70
2019-05-29T03:43:26.068Z,1.45
2019-05-29T03:45:55.296Z,1.35
2019-05-29T03:48:25.981Z,1.25
2019-05-29T03:50:58.437Z,1.20
2019-05-29T03:53:29.059Z,1.12
2019-05-29T03:55:58.447Z,1.80
2019-05-29T03:58:28.873Z,1.30
2019-05-29T04:00:58.592Z,1.50
2019-05-29T04:03:28.955Z,1.40
2019-05-29T04:05:58.370Z,1.77
2019-05-29T04:08:29.284Z,1.70
2019-05-29T04:10:58.997Z,1.87
2019-05-29T04:13:29.606Z,2.05
2019-05-29T04:16:01.149Z,1.47
2019-05-29T04:18:31.816Z,1.05
2019-05-29T04:21:02.682Z,1.27
2019-05-29T04:23:36.128Z,1.17
2019-05-29T04:26:05.455Z,1.30
2019-05-29T04:28:35.305Z,1.15
2019-05-29T04:31:05.462Z,1.30
2019-05-29T04:33:35.307Z,1.57
2019-05-29T04:36:05.437Z,1.47
2019-05-29T04:38:36.135Z,1.60
2019-05-29T04:41:05.412Z,1.65
2019-05-29T04:43:35.452Z,1.70
2019-05-29T04:46:05.391Z,1.80
2019-05-29T04:48:36.210Z,1.40
2019-05-29T04:51:05.381Z,1.52
2019-05-29T04:53:35.522Z,1.70
2019-05-29T04:56:04.791Z,1.60
2019-05-29T04:58:34.850Z,1.75
2019-05-29T05:01:04.038Z,1.60
2019-05-29T05:03:33.326Z,1.47
2019-05-29T05:06:02.426Z,1.40
2019-05-29T05:08:31.543Z,1.35
2019-05-29T05:11:00.674Z,1.70
2019-05-29T05:13:29.874Z,1.52
2019-05-29T05:16:19.465Z,1.47
2019-05-29T05:18:48.603Z,1.47
2019-05-29T05:21:17.738Z,1.50
2019-05-29T05:23:46.911Z,1.50
2019-05-29T05:26:16.068Z,1.50
2019-05-29T05:28:46.430Z,1.70
2019-05-29T05:31:15.913Z,1.90
2019-05-29T05:33:45.033Z,2.33
2019-05-29T05:36:14.184Z,2.00
2019-05-29T05:38:43.292Z,1.62
2019-05-29T05:41:12.439Z,1.72
2019-05-29T05:43:41.660Z,1.90
2019-05-29T05:46:10.801Z,1.98
2019-05-29T05:48:39.935Z,2.50
2019-05-29T05:51:09.025Z,2.60
2019-05-29T05:53:39.437Z,2.27
2019-05-29T05:56:08.595Z,1.82
2019-05-29T05:58:37.876Z,2.30
2019-05-29T06:01:07.005Z,2.08
2019-05-29T06:03:36.159Z,2.25
2019-05-29T06:06:05.398Z,2.37
2019-05-29T06:08:34.521Z,2.40
2019-05-29T06:11:03.730Z,2.27
2019-05-29T06:13:32.879Z,2.90
2019-05-29T06:16:02.000Z,2.80
2019-05-29T06:18:32.285Z,3.02
2019-05-29T06:21:01.536Z,2.42
2019-05-29T06:23:30.664Z,2.47
2019-05-29T06:26:00.255Z,2.17
2019-05-29T06:28:29.483Z,2.35
2019-05-29T06:30:58.640Z,1.90
2019-05-29T06:33:27.896Z,2.00
2019-05-29T06:35:57.045Z,1.87
2019-05-29T06:38:26.202Z,1.57
2019-05-29T06:40:55.307Z,1.45
2019-05-29T06:43:25.769Z,1.60
2019-05-29T06:45:55.359Z,1.40
2019-05-29T06:48:42.565Z,1.30
2019-05-29T06:50:59.823Z,1.52
2019-05-29T06:53:28.996Z,1.30
2019-05-29T06:55:59.389Z,1.32
2019-05-29T06:58:29.423Z,1.20
2019-05-29T07:00:58.599Z,1.22
2019-05-29T07:03:27.736Z,1.10
2019-05-29T07:05:56.886Z,1.90
2019-05-29T07:08:38.204Z,2.22
2019-05-29T07:10:56.857Z,1.77
2019-05-29T07:13:25.986Z,1.60
2019-05-29T07:15:55.094Z,1.50
2019-05-29T07:18:24.257Z,1.50
2019-05-29T07:20:53.423Z,1.52
2019-05-29T07:23:22.551Z,1.10
2019-05-29T07:25:51.690Z,1.00
2019-05-29T07:28:20.850Z,1.20
2019-05-29T07:31:00.508Z,1.07
2019-05-29T07:33:20.855Z,1.30
2019-05-29T07:35:49.974Z,0.88
2019-05-29T07:38:19.163Z,0.78
2019-05-29T07:40:50.079Z,0.60
2019-05-29T07:43:19.225Z,0.50
2019-05-29T07:45:48.371Z,0.70
2019-05-29T07:48:18.028Z,0.50
2019-05-29T07:50:48.124Z,0.78
2019-05-29T07:53:17.503Z,0.85
2019-05-29T07:55:46.803Z,0.88
2019-05-29T07:58:15.871Z,1.00
2019-05-29T08:01:06.836Z,0.50
2019-05-29T08:03:16.037Z,0.60
2019-05-29T08:05:49.194Z,0.80
2019-05-29T08:08:16.018Z,0.93
2019-05-29T08:10:45.545Z,0.88
2019-05-29T08:13:14.801Z,0.95
2019-05-29T08:15:57.607Z,1.00
2019-05-29T08:18:14.973Z,0.88
2019-05-29T08:20:44.052Z,0.70
2019-05-29T08:23:13.180Z,1.00
2019-05-29T08:25:43.457Z,0.72
2019-05-29T08:28:12.734Z,0.80
2019-05-29T08:30:47.688Z,0.70
2019-05-29T08:33:12.823Z,0.78
2019-05-29T08:35:43.059Z,1.45
2019-05-29T08:38:12.335Z,0.78
2019-05-29T08:40:41.488Z,0.65
2019-05-29T08:43:10.664Z,0.70
2019-05-29T08:45:39.846Z,0.80
2019-05-29T08:48:08.980Z,0.80
2019-05-29T08:50:38.178Z,0.60
2019-05-29T08:53:07.338Z,0.70
2019-05-29T08:55:36.574Z,0.72
2019-05-29T08:58:05.694Z,0.80
2019-05-29T09:00:34.928Z,0.70
2019-05-29T09:03:04.197Z,0.70
2019-05-29T09:05:33.384Z,0.60
2019-05-29T09:08:02.581Z,0.60
2019-05-29T09:10:31.747Z,0.60
2019-05-29T09:13:04.843Z,0.70
2019-05-29T09:15:31.761Z,0.68
2019-05-29T09:18:00.902Z,0.70
2019-05-29T09:20:57.378Z,0.70
2019-05-29T09:23:00.983Z,0.50
2019-05-29T09:25:30.177Z,0.80
2019-05-29T09:27:59.431Z,0.50
2019-05-29T09:30:28.601Z,0.50
2019-05-29T09:32:57.820Z,0.68
2019-05-29T09:35:27.078Z,0.80
2019-05-29T09:37:56.295Z,0.70
2019-05-29T09:40:25.535Z,0.70
2019-05-29T09:42:54.841Z,0.80
2019-05-29T09:45:24.038Z,0.60
2019-05-29T09:47:53.310Z,0.70
2019-05-29T09:50:23.925Z,0.57
2019-05-29T09:52:55.340Z,0.70
2019-05-29T09:55:24.389Z,0.57
2019-05-29T09:57:54.180Z,1.12
2019-05-29T10:00:26.382Z,0.75
2019-05-29T10:02:55.700Z,0.80
2019-05-29T10:05:24.852Z,0.60
2019-05-29T10:07:55.079Z,0.70
2019-05-29T10:10:25.575Z,0.60
2019-05-29T10:12:55.405Z,0.72
2019-05-29T10:15:25.809Z,0.90
2019-05-29T10:17:55.854Z,0.90
2019-05-29T10:20:26.985Z,1.15
2019-05-29T10:22:57.159Z,0.60
2019-05-29T10:25:26.368Z,0.60
2019-05-29T10:27:55.584Z,0.70
2019-05-29T10:30:25.117Z,0.70
2019-05-29T10:32:54.408Z,0.62
2019-05-29T10:35:23.669Z,0.72
2019-05-29T10:37:53.127Z,0.70
2019-05-29T10:40:22.712Z,0.85
2019-05-29T10:42:53.406Z,0.90
2019-05-29T10:45:22.768Z,0.90
2019-05-29T10:47:52.482Z,0.85
2019-05-29T10:50:23.337Z,0.80
2019-05-29T10:52:52.584Z,0.90
2019-05-29T10:55:23.736Z,0.70
2019-05-29T10:57:53.354Z,0.68
2019-05-29T11:00:24.206Z,0.82
2019-05-29T11:02:55.370Z,0.80
2019-05-29T11:05:24.378Z,0.50
2019-05-29T11:07:54.008Z,0.57
2019-05-29T11:10:23.515Z,1.15
2019-05-29T11:12:52.779Z,0.80
2019-05-29T11:15:22.534Z,0.60
2019-05-29T11:17:52.844Z,0.70
2019-05-29T11:20:23.374Z,0.53
2019-05-29T11:22:53.578Z,0.70
2019-05-29T11:25:27.415Z,0.75
2019-05-29T11:27:54.833Z,0.70
2019-05-29T11:30:24.467Z,0.80
2019-05-29T11:32:55.611Z,0.70
2019-05-29T11:35:24.708Z,0.80
2019-05-29T11:37:54.970Z,0.80
2019-05-29T11:40:24.150Z,0.70
2019-05-29T11:42:54.693Z,0.80
2019-05-29T11:45:24.027Z,0.65
2019-05-29T11:47:53.938Z,0.80
2019-05-29T11:50:24.108Z,0.65
2019-05-29T11:52:54.407Z,0.80
2019-05-29T11:55:42.822Z,0.62
2019-05-29T11:58:29.777Z,0.62
2019-05-29T12:00:43.129Z,0.80
2019-05-29T12:03:12.391Z,0.50
2019-05-29T12:05:41.556Z,0.65
2019-05-29T12:08:10.913Z,0.60
2019-05-29T12:10:40.053Z,0.50
2019-05-29T12:13:09.281Z,0.68
2019-05-29T12:15:38.476Z,0.60
2019-05-29T12:18:22.723Z,0.50
2019-05-29T12:20:38.688Z,0.60
2019-05-29T12:23:22.915Z,0.85
2019-05-29T12:25:38.861Z,0.65
2019-05-29T12:28:08.165Z,0.70
2019-05-29T12:30:37.620Z,0.70
2019-05-29T12:33:06.932Z,0.80
2019-05-29T12:35:36.098Z,0.70
2019-05-29T12:38:05.298Z,0.68
2019-05-29T12:40:34.472Z,0.78
2019-05-29T12:43:03.858Z,0.62
2019-05-29T12:45:33.128Z,0.70
2019-05-29T12:48:06.569Z,0.70
2019-05-29T12:50:34.636Z,0.60
2019-05-29T12:53:04.289Z,0.70
2019-05-29T12:55:33.724Z,0.80
2019-05-29T12:58:04.322Z,0.80
2019-05-29T13:00:33.754Z,0.60
2019-05-29T13:03:03.236Z,0.60
2019-05-29T13:05:33.927Z,0.80
2019-05-29T13:08:03.621Z,0.70
2019-05-29T13:10:34.225Z,0.60
2019-05-29T13:13:08.504Z,0.50
2019-05-29T13:15:34.241Z,0.60
2019-05-29T13:18:09.080Z,0.68
2019-05-29T13:20:34.288Z,0.60
2019-05-29T13:23:06.742Z,0.72
2019-05-29T13:25:34.535Z,0.60
2019-05-29T13:28:04.770Z,0.55
2019-05-29T13:30:34.644Z,0.65
2019-05-29T13:33:07.444Z,0.70
2019-05-29T13:35:34.765Z,0.70
2019-05-29T13:38:05.128Z,0.60
2019-05-29T13:40:34.391Z,0.60
2019-05-29T13:43:11.482Z,0.80
2019-05-29T13:45:34.521Z,0.72
2019-05-29T13:48:05.241Z,0.78
2019-05-29T13:50:34.706Z,0.60
2019-05-29T13:53:04.183Z,0.75
2019-05-29T13:55:34.611Z,0.72
2019-05-29T13:58:03.890Z,1.00
2019-05-29T14:00:34.942Z,0.80
2019-05-29T14:03:04.890Z,0.85
2019-05-29T14:05:35.129Z,0.70
2019-05-29T14:08:04.820Z,0.70
2019-05-29T14:10:34.426Z,0.70
2019-05-29T14:13:03.617Z,0.70
2019-05-29T14:15:32.836Z,1.10
2019-05-29T14:18:02.870Z,0.90
2019-05-29T14:20:32.200Z,0.68
2019-05-29T14:23:01.489Z,0.70
2019-05-29T14:25:30.718Z,0.60
2019-05-29T14:28:00.772Z,0.60
2019-05-29T14:30:30.089Z,1.00
2019-05-29T14:32:59.332Z,1.10
2019-05-29T14:35:28.549Z,0.80
2019-05-29T14:37:57.751Z,0.70
2019-05-29T14:40:26.951Z,0.70
2019-05-29T14:42:56.140Z,0.80
2019-05-29T14:45:25.513Z,0.68
2019-05-29T14:47:57.626Z,0.70
2019-05-29T14:50:26.808Z,0.70
2019-05-29T14:52:56.001Z,0.70
2019-05-29T14:55:25.177Z,0.80
2019-05-29T14:57:54.366Z,0.70
2019-05-29T15:00:25.666Z,0.60
2019-05-29T15:02:54.765Z,0.53
2019-05-29T15:05:24.569Z,0.60
2019-05-29T15:07:53.865Z,0.70
2019-05-29T15:10:27.573Z,0.80
2019-05-29T15:12:57.789Z,0.90
2019-05-29T15:15:25.256Z,0.80
2019-05-29T15:17:54.504Z,0.70
2019-05-29T15:20:23.724Z,0.60
2019-05-29T15:22:52.993Z,0.60
2019-05-29T15:25:24.398Z,0.50
2019-05-29T15:27:53.399Z,0.80
2019-05-29T15:30:23.785Z,0.65
2019-05-29T15:32:53.254Z,0.72
2019-05-29T15:35:22.470Z,0.65
2019-05-29T15:37:51.665Z,0.62
2019-05-29T15:40:20.914Z,0.70
2019-05-29T15:42:50.112Z,0.80
2019-05-29T15:45:20.967Z,0.53
2019-05-29T15:47:50.336Z,0.75
2019-05-29T15:50:19.694Z,0.55
2019-05-29T15:52:48.884Z,0.70
2019-05-29T15:55:28.405Z,0.60
2019-05-29T15:57:49.142Z,0.72
2019-05-29T16:00:18.548Z,0.80
2019-05-29T16:02:49.409Z,0.70
2019-05-29T16:05:21.686Z,0.70
2019-05-29T16:07:50.239Z,0.60
2019-05-29T16:10:20.983Z,0.80
2019-05-29T16:12:50.321Z,0.70
2019-05-29T16:15:22.878Z,0.70
2019-05-29T16:17:52.501Z,1.02
2019-05-29T16:20:22.826Z,1.22
2019-05-29T16:22:52.166Z,0.80
2019-05-29T16:25:37.880Z,0.80
2019-05-29T16:27:52.371Z,0.72
2019-05-29T16:30:21.958Z,0.70
2019-05-29T16:32:51.361Z,0.80
2019-05-29T16:35:21.896Z,0.80
2019-05-29T16:37:51.062Z,0.70
2019-05-29T16:40:21.856Z,1.00
2019-05-29T16:42:51.152Z,0.80
2019-05-29T16:45:20.573Z,0.70
2019-05-29T16:47:49.804Z,0.93
2019-05-29T16:50:21.240Z,0.80
2019-05-29T16:52:50.451Z,1.00
2019-05-29T16:55:22.967Z,0.80
2019-05-29T16:57:50.590Z,1.00
2019-05-29T17:00:21.707Z,0.90
2019-05-29T17:02:51.143Z,1.10
2019-05-29T17:05:22.258Z,0.90
2019-05-29T17:07:51.561Z,1.02
2019-05-29T17:10:25.544Z,0.88
2019-05-29T17:12:54.861Z,0.80
2019-05-29T17:15:24.740Z,0.98
2019-05-29T17:17:54.094Z,0.82
2019-05-29T17:20:39.002Z,0.88
2019-05-29T17:25:36.412Z,0.98
2019-05-29T17:28:05.783Z,0.68
2019-05-29T17:30:35.315Z,0.95
2019-05-29T17:33:04.613Z,0.80
2019-05-29T17:35:33.814Z,0.90
2019-05-29T17:38:03.061Z,0.80
2019-05-29T17:40:32.228Z,0.75
2019-05-29T17:43:02.619Z,1.05
2019-05-29T17:45:31.806Z,0.85
2019-05-29T17:48:00.997Z,0.90
2019-05-29T17:50:30.207Z,0.90
2019-05-29T17:52:59.378Z,0.85
2019-05-29T17:55:28.609Z,0.80
2019-05-29T17:57:57.841Z,0.90
2019-05-29T18:00:27.145Z,0.70
2019-05-29T18:02:56.360Z,0.80
2019-05-29T18:05:26.650Z,0.68
2019-05-29T18:07:55.962Z,0.72
2019-05-29T18:10:25.746Z,0.80
2019-05-29T18:12:55.011Z,0.60
2019-05-29T18:15:25.656Z,0.70
2019-05-29T18:17:55.010Z,0.70
2019-05-29T18:20:25.702Z,0.72
2019-05-29T18:22:55.057Z,0.62
2019-05-29T18:25:24.299Z,0.60
2019-05-29T18:27:53.474Z,0.60
2019-05-29T18:30:22.814Z,1.30
2019-05-29T18:32:52.014Z,3.35
2019-05-29T18:35:21.425Z,1.80
2019-05-29T18:37:50.704Z,1.20
2019-05-29T18:40:20.684Z,0.85
2019-05-29T18:42:49.848Z,0.82
2019-05-29T18:45:21.548Z,0.62
2019-05-29T18:47:50.241Z,0.80
2019-05-29T18:50:21.504Z,0.72
2019-05-29T18:52:51.078Z,0.80
2019-05-29T18:55:20.751Z,0.80
2019-05-29T18:57:50.075Z,0.85
2019-05-29T19:00:21.146Z,0.88
2019-05-29T19:02:50.452Z,0.80
2019-05-29T19:05:19.741Z,0.90
2019-05-29T19:07:48.936Z,1.05
2019-05-29T19:10:18.251Z,1.17
2019-05-29T19:12:47.549Z,0.98
2019-05-29T19:15:17.116Z,1.20
2019-05-29T19:17:46.324Z,2.30
2019-05-29T19:20:15.830Z,1.60
2019-05-29T19:22:45.152Z,1.10
2019-05-29T19:25:14.526Z,1.10
2019-05-29T19:27:43.771Z,0.95
2019-05-29T19:30:13.338Z,0.95
2019-05-29T19:32:42.530Z,0.90
2019-05-29T19:35:12.038Z,1.00
2019-05-29T19:37:41.276Z,1.00
2019-05-29T19:40:10.599Z,1.50
2019-05-29T19:42:39.782Z,1.12
2019-05-29T19:45:10.310Z,1.00
2019-05-29T19:47:39.491Z,0.90
2019-05-29T19:50:11.354Z,1.10
2019-05-29T19:52:39.936Z,0.80
2019-05-29T19:55:09.917Z,0.90
2019-05-29T19:57:54.810Z,0.88
2019-05-29T20:00:10.627Z,1.00
2019-05-29T20:02:40.015Z,1.00
2019-05-29T20:05:10.053Z,0.95
2019-05-29T20:07:39.240Z,0.80
2019-05-29T20:10:09.476Z,1.20
2019-05-29T20:12:38.700Z,6.55
2019-05-29T20:15:08.188Z,5.65
2019-05-29T20:17:38.488Z,2.42
2019-05-29T20:20:08.438Z,1.80
2019-05-29T20:22:38.971Z,1.67
2019-05-29T20:25:13.382Z,1.50
2019-05-29T20:27:41.004Z,1.62
2019-05-29T20:30:16.483Z,1.52
2019-05-29T20:32:45.689Z,2.12
2019-05-29T20:35:15.242Z,1.20
2019-05-29T20:37:44.480Z,1.10
2019-05-29T20:40:14.520Z,1.00
2019-05-29T20:42:43.692Z,1.07
2019-05-29T20:45:13.291Z,2.20
2019-05-29T20:47:42.547Z,4.30
2019-05-29T20:50:12.342Z,1.90
2019-05-29T20:52:41.535Z,1.25
2019-05-29T20:55:11.273Z,0.98
2019-05-29T20:57:40.500Z,1.42
2019-05-29T21:00:10.266Z,1.50
2019-05-29T21:02:40.455Z,1.20
2019-05-29T21:05:09.993Z,1.17
2019-05-29T21:07:39.237Z,1.10
2019-05-29T21:10:08.549Z,1.00
2019-05-29T21:12:41.954Z,1.10
2019-05-29T21:15:09.333Z,1.15
2019-05-29T21:17:39.858Z,1.30
2019-05-29T21:20:09.687Z,1.02
2019-05-29T21:22:38.907Z,1.07
2019-05-29T21:25:12.661Z,1.10
2019-05-29T21:27:43.898Z,0.93
2019-05-29T21:30:12.056Z,1.20
2019-05-29T21:32:41.940Z,1.05
2019-05-29T21:35:11.239Z,1.20
2019-05-29T21:37:40.459Z,1.02
2019-05-29T21:40:09.856Z,1.10
2019-05-29T21:42:39.053Z,1.17
2019-05-29T21:45:08.451Z,1.02
2019-05-29T21:47:38.881Z,1.00
2019-05-29T21:50:08.514Z,1.10
2019-05-29T21:52:37.719Z,1.20
2019-05-29T21:55:07.569Z,1.25
2019-05-29T21:57:37.736Z,1.02
2019-05-29T22:00:10.860Z,1.07
2019-05-29T22:02:40.313Z,1.07
2019-05-29T22:05:09.995Z,1.20
2019-05-29T22:07:40.582Z,1.00
2019-05-29T22:10:10.843Z,1.10
2019-05-29T22:12:40.028Z,1.10
2019-05-29T22:15:09.333Z,1.40
2019-05-29T22:17:38.610Z,1.10
2019-05-29T22:20:08.043Z,1.22
2019-05-29T22:22:37.218Z,1.30
2019-05-29T22:25:06.742Z,1.25
2019-05-29T22:27:35.980Z,1.10
2019-05-29T22:30:06.741Z,1.55
2019-05-29T22:32:35.946Z,1.10
2019-05-29T22:35:05.323Z,1.17
2019-05-29T22:37:34.563Z,1.10
2019-05-29T22:40:03.794Z,1.10
2019-05-29T22:42:33.022Z,1.30
2019-05-29T22:45:02.380Z,1.05
2019-05-29T22:47:31.690Z,1.10
2019-05-29T22:50:02.207Z,1.05
2019-05-29T22:52:31.556Z,1.15
2019-05-29T22:55:02.228Z,1.30
2019-05-29T22:57:31.669Z,1.30
2019-05-29T23:00:02.343Z,1.40
2019-05-29T23:02:31.738Z,1.40
2019-05-29T23:05:00.937Z,1.30
2019-05-29T23:07:30.148Z,1.20
2019-05-29T23:10:00.590Z,1.27
2019-05-29T23:12:29.904Z,1.50
2019-05-29T23:14:59.140Z,1.30
2019-05-29T23:17:28.339Z,1.20
2019-05-29T23:19:58.566Z,1.20
2019-05-29T23:22:27.797Z,1.42
2019-05-29T23:24:57.058Z,1.20
2019-05-29T23:27:26.266Z,1.20
2019-05-29T23:29:56.777Z,1.20
2019-05-29T23:32:26.010Z,1.42
2019-05-29T23:34:55.204Z,1.20
2019-05-29T23:37:24.426Z,1.10
2019-05-29T23:39:53.664Z,1.52
2019-05-29T23:42:22.848Z,1.40
2019-05-29T23:44:52.764Z,1.00
2019-05-29T23:47:22.941Z,1.30
2019-05-29T23:49:53.365Z,1.30
2019-05-29T23:52:22.700Z,1.30
2019-05-29T23:54:51.898Z,1.25
2019-05-29T23:57:21.338Z,1.20
